createdAt,value
2018-03-16T00:01:59.916Z,12.20
2018-03-16T00:04:28.182Z,12.27
2018-03-16T00:06:55.646Z,13.00
2018-03-16T00:09:23.911Z,12.10
2018-03-16T00:11:51.388Z,13.60
2018-03-16T00:14:19.663Z,12.97
2018-03-16T00:16:47.934Z,13.20
2018-03-16T00:19:16.285Z,14.70
2018-03-16T00:21:43.774Z,12.60
2018-03-16T00:24:12.010Z,11.73
2018-03-16T00:26:39.498Z,12.30
2018-03-16T00:29:06.975Z,11.40
2018-03-16T00:31:35.227Z,12.97
2018-03-16T00:34:03.474Z,11.10
2018-03-16T00:36:30.969Z,12.07
2018-03-16T00:38:58.482Z,11.63
2018-03-16T00:41:25.994Z,12.53
2018-03-16T00:43:54.246Z,12.10
2018-03-16T00:46:21.728Z,11.90
2018-03-16T00:48:50.256Z,11.60
2018-03-16T00:51:17.726Z,12.93
2018-03-16T00:53:45.213Z,11.47
2018-03-16T00:56:12.691Z,11.57
2018-03-16T00:58:40.974Z,11.83
2018-03-16T01:01:09.245Z,13.00
2018-03-16T01:03:37.477Z,14.37
2018-03-16T01:06:04.973Z,12.90
2018-03-16T01:08:33.224Z,15.20
2018-03-16T01:11:00.709Z,12.23
2018-03-16T01:13:28.310Z,12.93
2018-03-16T01:15:55.839Z,12.70
2018-03-16T01:18:24.106Z,12.57
2018-03-16T01:20:52.374Z,12.33
2018-03-16T01:23:19.849Z,13.10
2018-03-16T01:25:48.098Z,13.07
2018-03-16T01:28:15.586Z,12.60
2018-03-16T01:30:43.825Z,12.73
2018-03-16T01:33:11.404Z,13.40
2018-03-16T01:35:38.867Z,14.07
2018-03-16T01:38:07.121Z,13.40
2018-03-16T01:40:34.598Z,12.67
2018-03-16T01:43:02.850Z,12.67
2018-03-16T01:45:30.330Z,13.73
2018-03-16T01:47:57.797Z,13.00
2018-03-16T01:50:26.050Z,15.73
2018-03-16T01:53:05.368Z,13.47
2018-03-16T01:55:32.862Z,13.67
2018-03-16T01:58:00.331Z,13.80
2018-03-16T02:00:28.638Z,13.27
2018-03-16T02:02:56.113Z,13.47
2018-03-16T02:05:23.609Z,12.40
2018-03-16T02:07:51.082Z,13.00
2018-03-16T02:10:19.329Z,13.57
2018-03-16T02:12:46.805Z,13.07
2018-03-16T02:15:14.278Z,13.40
2018-03-16T02:17:42.526Z,12.93
2018-03-16T02:20:10.002Z,13.67
2018-03-16T02:22:38.258Z,13.53
2018-03-16T02:25:06.490Z,13.93
2018-03-16T02:27:33.987Z,17.57
2018-03-16T02:30:01.467Z,13.80
2018-03-16T02:32:28.938Z,15.47
2018-03-16T02:34:57.206Z,14.67
2018-03-16T02:37:25.441Z,15.60
2018-03-16T02:39:52.940Z,14.90
2018-03-16T02:42:21.173Z,15.83
2018-03-16T02:44:48.666Z,16.37
2018-03-16T02:47:16.139Z,15.00
2018-03-16T02:49:44.397Z,15.90
2018-03-16T02:52:11.870Z,17.07
2018-03-16T02:54:40.107Z,16.10
2018-03-16T02:57:07.596Z,15.80
2018-03-16T02:59:35.844Z,16.90
2018-03-16T03:02:03.330Z,16.27
2018-03-16T03:04:31.582Z,16.43
2018-03-16T03:06:59.173Z,16.47
2018-03-16T03:09:27.406Z,16.80
2018-03-16T03:11:54.901Z,16.20
2018-03-16T03:14:22.366Z,16.40
2018-03-16T03:16:50.605Z,16.20
2018-03-16T03:19:18.090Z,16.70
2018-03-16T03:21:45.574Z,16.40
2018-03-16T03:24:13.825Z,16.90
2018-03-16T03:26:41.299Z,16.07
2018-03-16T03:29:09.550Z,17.20
2018-03-16T03:31:37.031Z,17.27
2018-03-16T03:34:05.568Z,16.67
2018-03-16T03:36:33.044Z,17.90
2018-03-16T03:39:00.536Z,17.40
2018-03-16T03:41:28.789Z,17.20
2018-03-16T03:43:56.258Z,17.80
2018-03-16T03:46:24.511Z,17.60
2018-03-16T03:48:51.982Z,17.47
2018-03-16T03:51:19.465Z,17.50
2018-03-16T03:53:47.697Z,17.40
2018-03-16T03:56:15.179Z,17.63
2018-03-16T03:58:43.470Z,15.97
2018-03-16T04:01:10.930Z,17.60
2018-03-16T04:03:39.175Z,17.97
2018-03-16T04:06:06.650Z,18.60
2018-03-16T04:08:34.902Z,17.73
2018-03-16T04:11:02.371Z,19.43
2018-03-16T04:13:29.854Z,18.30
2018-03-16T04:15:58.088Z,17.70
2018-03-16T04:18:25.577Z,18.50
2018-03-16T04:20:53.850Z,18.93
2018-03-16T04:23:21.338Z,17.53
2018-03-16T04:25:48.807Z,17.73
2018-03-16T04:28:16.293Z,18.80
2018-03-16T04:30:43.859Z,18.17
2018-03-16T04:33:11.326Z,18.70
2018-03-16T04:35:38.810Z,19.07
2018-03-16T04:38:07.039Z,18.67
2018-03-16T04:40:34.538Z,19.33
2018-03-16T04:43:02.798Z,18.73
2018-03-16T04:45:30.282Z,18.63
2018-03-16T04:47:58.542Z,18.37
2018-03-16T04:50:27.538Z,19.37
2018-03-16T04:52:55.790Z,18.83
2018-03-16T04:55:23.255Z,20.27
2018-03-16T04:57:50.745Z,19.83
2018-03-16T05:00:19.009Z,19.00
2018-03-16T05:02:47.277Z,19.77
2018-03-16T05:05:14.750Z,20.37
2018-03-16T05:07:42.998Z,19.60
2018-03-16T05:10:10.478Z,19.90
2018-03-16T05:12:37.942Z,19.73
2018-03-16T05:15:06.191Z,20.53
2018-03-16T05:17:33.667Z,18.23
2018-03-16T05:20:01.920Z,18.93
2018-03-16T05:22:29.385Z,21.37
2018-03-16T05:24:56.870Z,20.10
2018-03-16T05:27:25.126Z,21.80
2018-03-16T05:29:52.643Z,20.43
2018-03-16T05:32:20.118Z,20.30
2018-03-16T05:34:47.591Z,21.70
2018-03-16T05:37:15.090Z,20.57
2018-03-16T05:39:43.334Z,20.43
2018-03-16T05:42:10.850Z,21.10
2018-03-16T05:44:38.323Z,21.67
2018-03-16T05:47:05.817Z,22.07
2018-03-16T05:49:34.079Z,20.30
2018-03-16T05:52:02.361Z,21.43
2018-03-16T05:54:29.924Z,22.13
2018-03-16T05:56:57.448Z,24.27
2018-03-16T05:59:24.945Z,21.30
2018-03-16T06:01:52.413Z,21.13
2018-03-16T06:04:19.923Z,22.20
2018-03-16T06:06:47.398Z,20.30
2018-03-16T06:09:14.895Z,19.87
2018-03-16T06:11:43.142Z,20.33
2018-03-16T06:14:10.641Z,22.13
2018-03-16T06:16:38.875Z,23.17
2018-03-16T06:19:06.347Z,21.80
2018-03-16T06:21:33.827Z,21.57
2018-03-16T06:24:02.058Z,21.67
2018-03-16T06:26:29.658Z,20.80
2018-03-16T06:28:57.894Z,21.77
2018-03-16T06:31:25.393Z,24.40
2018-03-16T06:33:53.658Z,22.47
2018-03-16T06:36:21.173Z,21.70
2018-03-16T06:38:48.637Z,22.50
2018-03-16T06:41:16.110Z,22.60
2018-03-16T06:43:43.598Z,23.27
2018-03-16T06:46:11.839Z,22.90
2018-03-16T06:48:39.341Z,22.30
2018-03-16T06:51:07.578Z,24.00
2018-03-16T06:53:35.109Z,23.50
2018-03-16T06:56:02.574Z,24.10
2018-03-16T06:58:30.075Z,21.37
2018-03-16T07:00:57.543Z,23.20
2018-03-16T07:03:26.598Z,22.60
2018-03-16T07:05:54.126Z,21.27
2018-03-16T07:08:21.595Z,21.80
2018-03-16T07:10:49.078Z,22.90
2018-03-16T07:13:16.550Z,22.63
2018-03-16T07:15:44.035Z,23.17
2018-03-16T07:18:12.266Z,22.37
2018-03-16T07:20:39.743Z,21.87
2018-03-16T07:23:07.216Z,22.60
2018-03-16T07:25:34.721Z,22.17
2018-03-16T07:28:02.204Z,21.30
2018-03-16T07:30:29.694Z,23.00
2018-03-16T07:32:57.173Z,22.50
2018-03-16T07:35:25.415Z,23.27
2018-03-16T07:37:52.908Z,22.67
2018-03-16T07:40:21.207Z,23.53
2018-03-16T07:42:48.709Z,24.30
2018-03-16T07:45:16.671Z,21.70
2018-03-16T07:47:44.254Z,22.87
2018-03-16T07:50:12.490Z,22.73
2018-03-16T07:52:39.962Z,23.37
2018-03-16T07:55:07.446Z,22.00
2018-03-16T07:57:34.930Z,22.40
2018-03-16T08:00:02.416Z,23.10
2018-03-16T08:02:29.886Z,22.40
2018-03-16T08:04:57.378Z,24.40
2018-03-16T08:07:24.847Z,23.10
2018-03-16T08:09:53.483Z,22.30
2018-03-16T08:12:20.976Z,23.63
2018-03-16T08:14:48.442Z,23.70
2018-03-16T08:17:16.758Z,23.37
2018-03-16T08:19:44.230Z,24.47
2018-03-16T08:22:11.710Z,25.27
2018-03-16T08:24:39.223Z,23.40
2018-03-16T08:27:07.566Z,21.80
2018-03-16T08:29:35.078Z,21.30
2018-03-16T08:32:02.563Z,20.37
2018-03-16T08:34:30.039Z,25.10
2018-03-16T08:36:58.294Z,21.70
2018-03-16T08:39:25.763Z,22.97
2018-03-16T08:41:53.234Z,23.30
2018-03-16T08:44:20.731Z,22.77
2018-03-16T08:46:48.218Z,34.60
2018-03-16T08:49:15.711Z,22.50
2018-03-16T08:51:43.184Z,22.20
2018-03-16T08:54:11.446Z,24.70
2018-03-16T08:56:38.945Z,23.00
2018-03-16T08:59:06.494Z,24.50
2018-03-16T09:01:34.027Z,24.47
2018-03-16T09:04:02.290Z,22.33
2018-03-16T09:06:29.842Z,24.97
2018-03-16T09:08:57.318Z,22.60
2018-03-16T09:11:25.574Z,23.70
2018-03-16T09:13:53.050Z,25.27
2018-03-16T09:16:20.535Z,23.57
2018-03-16T09:18:48.046Z,25.30
2018-03-16T09:21:15.535Z,23.80
2018-03-16T09:23:43.028Z,23.57
2018-03-16T09:26:10.646Z,23.23
2018-03-16T09:28:38.137Z,25.10
2018-03-16T09:31:05.709Z,23.17
2018-03-16T09:33:33.232Z,24.80
2018-03-16T09:36:01.465Z,23.60
2018-03-16T09:38:28.965Z,24.53
2018-03-16T09:40:57.204Z,23.20
2018-03-16T09:43:24.702Z,23.40
2018-03-16T09:45:52.946Z,23.70
2018-03-16T09:48:20.431Z,23.17
2018-03-16T09:50:48.753Z,24.03
2018-03-16T09:53:25.930Z,23.07
2018-03-16T09:55:53.422Z,27.93
2018-03-16T09:58:20.910Z,24.23
2018-03-16T10:00:48.476Z,25.60
2018-03-16T10:03:16.726Z,23.57
2018-03-16T10:05:44.248Z,25.27
2018-03-16T10:08:11.737Z,27.40
2018-03-16T10:10:39.231Z,24.10
2018-03-16T10:13:07.494Z,23.87
2018-03-16T10:15:35.734Z,26.90
2018-03-16T10:18:03.222Z,25.93
2018-03-16T10:20:30.728Z,25.13
2018-03-16T10:22:58.280Z,22.90
2018-03-16T10:25:25.877Z,23.53
2018-03-16T10:27:53.423Z,22.73
2018-03-16T10:30:20.906Z,22.40
2018-03-16T10:32:48.391Z,23.13
2018-03-16T10:35:16.664Z,26.20
2018-03-16T10:37:44.159Z,22.43
2018-03-16T10:40:11.691Z,21.43
2018-03-16T10:42:40.006Z,34.03
2018-03-16T10:45:07.499Z,22.50
2018-03-16T10:47:35.000Z,21.40
2018-03-16T10:50:02.502Z,19.43
2018-03-16T10:52:29.975Z,23.10
2018-03-16T10:54:57.494Z,20.47
2018-03-16T10:57:25.060Z,22.83
2018-03-16T10:59:52.534Z,21.70
2018-03-16T11:02:20.048Z,22.77
2018-03-16T11:04:53.906Z,19.83
2018-03-16T11:07:21.427Z,44.97
2018-03-16T11:09:48.937Z,22.20
2018-03-16T11:12:16.457Z,21.87
2018-03-16T11:14:44.002Z,22.63
2018-03-16T11:17:11.483Z,24.80
2018-03-16T11:19:39.017Z,18.70
2018-03-16T11:22:06.560Z,19.60
2018-03-16T11:24:34.840Z,20.80
2018-03-16T11:27:03.086Z,19.97
2018-03-16T11:29:30.578Z,20.80
2018-03-16T11:31:58.819Z,20.53
2018-03-16T11:34:26.345Z,21.90
2018-03-16T11:36:53.844Z,23.00
2018-03-16T11:39:21.419Z,21.73
2018-03-16T11:41:48.959Z,22.23
2018-03-16T11:44:16.560Z,22.27
2018-03-16T11:46:44.907Z,24.43
2018-03-16T11:49:12.470Z,14.63
2018-03-16T11:51:40.053Z,14.40
2018-03-16T11:54:08.296Z,13.00
2018-03-16T11:56:35.791Z,14.27
2018-03-16T11:59:04.045Z,13.40
2018-03-16T12:01:31.540Z,14.80
2018-03-16T12:03:59.043Z,15.87
2018-03-16T12:06:26.518Z,18.00
2018-03-16T12:08:54.030Z,15.87
2018-03-16T12:11:21.530Z,15.50
2018-03-16T12:13:49.804Z,16.60
2018-03-16T12:16:17.274Z,16.10
2018-03-16T12:18:44.781Z,14.63
2018-03-16T12:21:12.290Z,13.97
2018-03-16T12:23:39.763Z,13.67
2018-03-16T12:26:08.023Z,13.53
2018-03-16T12:28:49.574Z,13.63
2018-03-16T12:31:03.770Z,14.50
2018-03-16T12:33:32.087Z,13.70
2018-03-16T12:35:59.578Z,14.80
2018-03-16T12:38:27.102Z,15.80
2018-03-16T12:40:54.609Z,14.63
2018-03-16T12:43:22.894Z,18.00
2018-03-16T12:45:52.985Z,23.47
2018-03-16T12:48:20.853Z,16.27
2018-03-16T12:50:49.014Z,18.93
2018-03-16T12:53:16.583Z,55.50
2018-03-16T12:55:44.124Z,16.90
2018-03-16T12:58:11.744Z,17.10
2018-03-16T13:00:40.030Z,13.00
2018-03-16T13:03:07.604Z,16.87
2018-03-16T13:05:36.122Z,14.63
2018-03-16T13:08:03.662Z,33.33
2018-03-16T13:10:32.064Z,13.53
2018-03-16T13:13:00.898Z,17.80
2018-03-16T13:15:29.571Z,19.90
2018-03-16T13:17:57.141Z,12.73
2018-03-16T13:20:25.415Z,112.83
2018-03-16T13:22:53.689Z,13.30
2018-03-16T13:25:22.009Z,13.17
2018-03-16T13:27:49.897Z,13.40
2018-03-16T13:30:17.391Z,23.80
2018-03-16T13:32:45.672Z,20.27
2018-03-16T13:35:13.990Z,10.97
2018-03-16T13:37:41.482Z,13.40
2018-03-16T13:40:09.336Z,18.10
2018-03-16T13:42:38.809Z,14.03
2018-03-16T13:45:06.448Z,24.73
2018-03-16T13:47:34.995Z,27.67
2018-03-16T13:50:03.911Z,14.70
2018-03-16T13:52:32.202Z,26.20
2018-03-16T13:55:00.480Z,87.87
2018-03-16T13:57:28.785Z,18.93
2018-03-16T13:59:57.197Z,31.90
2018-03-16T14:02:24.735Z,28.60
2018-03-16T14:04:52.271Z,40.70
2018-03-16T14:07:19.740Z,49.87
2018-03-16T14:09:47.685Z,43.00
2018-03-16T14:12:15.317Z,44.17
2018-03-16T14:14:43.151Z,48.73
2018-03-16T14:17:11.445Z,52.07
2018-03-16T14:19:39.734Z,48.37
2018-03-16T14:22:08.845Z,45.97
2018-03-16T14:24:37.522Z,47.77
2018-03-16T14:27:05.161Z,46.53
2018-03-16T14:29:32.642Z,57.10
2018-03-16T14:32:00.242Z,48.03
2018-03-16T14:34:27.726Z,47.57
2018-03-16T14:36:55.212Z,47.00
2018-03-16T14:39:22.685Z,64.40
2018-03-16T14:41:50.250Z,43.10
2018-03-16T14:44:17.720Z,48.00
2018-03-16T14:46:45.983Z,42.97
2018-03-16T14:49:13.451Z,50.37
2018-03-16T14:51:41.682Z,49.63
2018-03-16T14:54:09.220Z,46.83
2018-03-16T14:56:36.689Z,43.17
2018-03-16T14:59:04.177Z,44.43
2018-03-16T15:01:31.659Z,42.93
2018-03-16T15:03:59.921Z,42.43
2018-03-16T15:06:27.399Z,47.93
2018-03-16T15:08:55.658Z,48.67
2018-03-16T15:11:23.122Z,43.13
2018-03-16T15:13:50.642Z,40.13
2018-03-16T15:16:18.116Z,46.90
2018-03-16T15:18:45.582Z,46.33
2018-03-16T15:21:13.088Z,44.43
2018-03-16T15:23:40.559Z,44.50
2018-03-16T15:26:08.043Z,46.10
2018-03-16T15:28:35.515Z,62.47
2018-03-16T15:31:03.010Z,38.47
2018-03-16T15:33:30.498Z,38.27
2018-03-16T15:35:58.012Z,37.20
2018-03-16T15:38:26.254Z,38.83
2018-03-16T15:40:53.719Z,48.10
2018-03-16T15:43:21.194Z,37.10
2018-03-16T15:45:48.682Z,40.57
2018-03-16T15:48:16.198Z,40.20
2018-03-16T15:50:43.784Z,34.97
2018-03-16T15:53:11.278Z,37.57
2018-03-16T15:55:38.767Z,39.70
2018-03-16T15:58:06.304Z,37.60
2018-03-16T16:00:33.795Z,40.30
2018-03-16T16:03:01.286Z,40.90
2018-03-16T16:05:29.543Z,38.37
2018-03-16T16:07:57.866Z,41.07
2018-03-16T16:10:25.350Z,39.10
2018-03-16T16:12:52.839Z,35.07
2018-03-16T16:15:21.159Z,40.13
2018-03-16T16:17:48.632Z,32.80
2018-03-16T16:20:16.585Z,29.50
2018-03-16T16:22:44.106Z,31.03
2018-03-16T16:25:12.346Z,25.10
2018-03-16T16:27:39.992Z,24.07
2018-03-16T16:30:07.498Z,22.60
2018-03-16T16:32:35.099Z,22.50
2018-03-16T16:35:02.569Z,27.43
2018-03-16T16:37:30.061Z,22.33
2018-03-16T16:39:57.530Z,21.60
2018-03-16T16:42:25.071Z,23.50
2018-03-16T16:44:52.739Z,28.03
2018-03-16T16:47:20.257Z,24.03
2018-03-16T16:49:48.075Z,21.80
2018-03-16T16:52:15.559Z,23.33
2018-03-16T16:54:43.822Z,17.83
2018-03-16T16:57:12.071Z,19.63
2018-03-16T16:59:39.572Z,23.63
2018-03-16T17:02:07.806Z,21.23
2018-03-16T17:04:35.302Z,30.57
2018-03-16T17:07:02.782Z,27.50
2018-03-16T17:09:30.302Z,25.60
2018-03-16T17:11:58.559Z,18.30
2018-03-16T17:14:26.051Z,15.53
2018-03-16T17:16:54.301Z,14.20
2018-03-16T17:19:21.779Z,14.30
2018-03-16T17:21:50.135Z,14.43
2018-03-16T17:24:17.620Z,17.63
2018-03-16T17:26:45.877Z,17.57
2018-03-16T17:29:13.344Z,14.40
2018-03-16T17:31:41.621Z,14.17
2018-03-16T17:34:09.873Z,17.40
2018-03-16T17:36:37.400Z,17.20
2018-03-16T17:39:04.882Z,14.60
2018-03-16T17:41:32.355Z,11.57
2018-03-16T17:43:59.919Z,9.13
2018-03-16T17:46:27.467Z,7.90
2018-03-16T17:48:54.970Z,7.40
2018-03-16T17:51:22.442Z,6.00
2018-03-16T17:53:50.061Z,8.00
2018-03-16T17:56:17.611Z,9.10
2018-03-16T17:58:45.107Z,9.77
2018-03-16T18:01:13.347Z,9.60
2018-03-16T18:03:40.830Z,10.67
2018-03-16T18:06:09.154Z,12.90
2018-03-16T18:08:37.354Z,8.80
2018-03-16T18:11:04.834Z,6.80
2018-03-16T18:13:33.069Z,7.90
2018-03-16T18:16:00.566Z,7.73
2018-03-16T18:18:28.831Z,7.73
2018-03-16T18:20:56.311Z,8.00
2018-03-16T18:23:24.561Z,6.73
2018-03-16T18:25:52.027Z,9.50
2018-03-16T18:28:19.637Z,26.20
2018-03-16T18:30:47.127Z,15.03
2018-03-16T18:33:14.661Z,14.37
2018-03-16T18:35:43.036Z,9.73
2018-03-16T18:38:10.594Z,10.40
2018-03-16T18:40:38.067Z,10.93
2018-03-16T18:43:05.542Z,19.50
2018-03-16T18:45:33.036Z,18.00
2018-03-16T18:48:00.550Z,13.13
2018-03-16T18:50:28.043Z,16.93
2018-03-16T18:52:55.510Z,23.43
2018-03-16T18:55:23.773Z,17.50
2018-03-16T18:57:52.104Z,16.83
2018-03-16T19:00:19.600Z,17.03
2018-03-16T19:02:47.349Z,15.83
2018-03-16T19:05:14.822Z,13.13
2018-03-16T19:07:42.359Z,16.00
2018-03-16T19:10:09.858Z,18.30
2018-03-16T19:12:38.142Z,14.53
2018-03-16T19:15:06.391Z,14.90
2018-03-16T19:17:33.910Z,12.30
2018-03-16T19:20:01.407Z,16.60
2018-03-16T19:22:28.902Z,14.97
2018-03-16T19:24:57.162Z,11.87
2018-03-16T19:27:25.411Z,12.67
2018-03-16T19:29:52.946Z,13.23
2018-03-16T19:32:20.426Z,12.80
2018-03-16T19:34:47.926Z,16.27
2018-03-16T19:37:16.167Z,12.33
2018-03-16T19:39:44.470Z,16.17
2018-03-16T19:42:11.963Z,17.07
2018-03-16T19:44:39.502Z,15.57
2018-03-16T19:48:30.806Z,20.00
2018-03-16T19:50:58.315Z,13.60
2018-03-16T19:53:25.841Z,15.30
2018-03-16T19:55:54.102Z,15.70
2018-03-16T19:58:21.645Z,17.70
2018-03-16T20:00:49.210Z,16.10
2018-03-16T20:03:17.543Z,18.23
2018-03-16T20:05:45.320Z,18.93
2018-03-16T20:08:13.537Z,16.87
2018-03-16T20:10:42.017Z,15.67
2018-03-16T20:13:10.349Z,18.80
2018-03-16T20:15:37.980Z,15.87
2018-03-16T20:18:07.388Z,18.47
2018-03-16T20:20:35.683Z,24.93
2018-03-16T20:23:03.315Z,18.73
2018-03-16T20:25:32.721Z,25.10
2018-03-16T20:28:00.352Z,16.00
2018-03-16T20:30:27.907Z,22.27
2018-03-16T20:32:55.473Z,19.33
2018-03-16T20:35:23.094Z,20.20
2018-03-16T20:37:50.674Z,19.67
2018-03-16T20:40:18.349Z,19.80
2018-03-16T20:42:45.853Z,18.30
2018-03-16T20:45:14.259Z,15.40
2018-03-16T20:47:41.742Z,15.60
2018-03-16T20:50:09.217Z,18.83
2018-03-16T20:52:37.519Z,17.73
2018-03-16T20:55:05.824Z,18.20
2018-03-16T20:57:33.437Z,17.50
2018-03-16T21:00:01.873Z,18.40
2018-03-16T21:02:29.439Z,17.07
2018-03-16T21:04:57.070Z,16.63
2018-03-16T21:07:24.674Z,18.70
2018-03-16T21:09:52.230Z,16.37
2018-03-16T21:12:19.777Z,15.23
2018-03-16T21:14:47.327Z,15.10
2018-03-16T21:17:14.842Z,13.80
2018-03-16T21:19:43.183Z,14.00
2018-03-16T21:22:10.700Z,13.90
2018-03-16T21:24:38.203Z,13.13
2018-03-16T21:27:05.691Z,12.53
